Data for 02/08/2015

Time Sea-Level Adjusted Pressure Absolute Pressure Temperature Relative Humidity Dew Point   
(mb) (inHg) (mb) (inHg) (C) (F) (%) (C) (F)
00:05 1015 29.97 844 24.92 8.2 46.8 39 -5.1 22.9
00:10 1015 29.97 844 24.92 8.5 47.2 39 -4.8 23.4
00:15 1015 29.97 844 24.92 8.4 47.1 40 -4.5 23.8
00:20 1015 29.97 844 24.92 8.3 46.9 40 -4.7 23.6
00:25 1015 29.97 844 24.92 8.2 46.8 40 -4.7 23.5
00:30 1015 29.97 844 24.92 8.2 46.8 40 -4.7 23.6
00:35 1015 29.97 844 24.92 8.2 46.8 40 -4.5 23.9
00:40 1015 29.97 844 24.92 8.1 46.6 41 -4.3 24.2
00:45 1015 29.97 844 24.92 8.1 46.5 40 -4.7 23.6
00:50 1015 29.97 844 24.92 8.3 47 39 -4.9 23.2
00:55 1015 29.97 844 24.92 8.4 47.2 39 -4.7 23.5
01:00 1015 29.97 844 24.92 8.4 47.2 38 -4.9 23.2
01:05 1015 29.97 844 24.92 8.5 47.2 39 -4.7 23.5
01:10 1015 29.97 844 24.92 8.4 47 39 -4.7 23.5
01:15 1015 29.97 844 24.92 8.3 47 39 -4.7 23.6
01:20 1015 29.97 844 24.92 8.4 47.1 39 -4.7 23.6
01:25 1015 29.97 844 24.92 8.4 47.2 39 -4.6 23.7
01:30 1015 29.97 845 24.95 8.5 47.2 38 -4.9 23.3
01:35 1015 29.97 845 24.95 8.6 47.5 39 -4.7 23.6
01:40 1015 29.97 845 24.95 8.7 47.6 37 -5.1 22.9
01:45 1015 29.97 845 24.95 8.8 47.8 37 -5.1 22.8
01:50 1015 29.97 845 24.95 8.8 47.8 38 -4.9 23.2
01:55 1015 29.97 845 24.95 8.8 47.8 38 -4.8 23.4
02:00 1015 29.97 845 24.95 8.6 47.4 39 -4.5 23.8
02:05 1015 29.97 845 24.95 8.3 47 38 -5.1 22.8
02:10 1015 29.97 845 24.95 8.5 47.3 36 -5.5 22
02:15 1015 29.97 845 24.95 8.7 47.6 37 -5.1 22.8
02:20 1015 29.97 845 24.95 8.7 47.6 37 -5.2 22.6
02:25 1015 29.97 845 24.95 8.6 47.5 37 -5.1 22.8
02:30 1016 30 845 24.95 8.5 47.3 38 -5.1 22.9
02:35 1016 30 845 24.95 8.5 47.4 38 -4.9 23.1
02:40 1016 30 845 24.95 8.5 47.2 38 -5 23.1
02:45 1016 30 845 24.95 8.5 47.3 38 -4.8 23.3
02:50 1016 30 845 24.95 8.4 47.1 39 -4.7 23.5
02:55 1016 30 845 24.95 8.2 46.7 40 -4.6 23.6
03:00 1016 30 845 24.95 8.1 46.5 40 -4.8 23.4
03:05 1016 30 845 24.95 8.1 46.7 38 -5.2 22.6
03:10 1016 30 845 24.95 8.4 47 38 -5.1 22.8
03:15 1016 30 845 24.95 8.4 47.1 38 -5.1 22.9
03:20 1016 30 845 24.95 8.3 47 38 -5.1 22.8
03:25 1016 30 845 24.95 8.4 47.1 38 -5.1 22.8
03:30 1016 30 846 24.98 8.5 47.2 40 -4.3 24.2
03:35 1016 30 846 24.98 8.3 46.9 42 -4 24.8
03:40 1017 30.03 846 24.98 8.1 46.5 44 -3.6 25.6
03:45 1017 30.03 846 24.98 7.8 46.1 46 -3.1 26.4
03:50 1017 30.03 846 24.98 7.5 45.6 47 -3 26.5
03:55 1017 30.03 846 24.98 7.5 45.5 46 -3.5 25.7
04:00 1017 30.03 846 24.98 7.5 45.5 46 -3.4 26
04:05 1017 30.03 846 24.98 7.4 45.4 47 -3.1 26.3
04:10 1017 30.03 846 24.98 7.3 45.1 48 -3 26.6
04:15 1017 30.03 846 24.98 7.1 44.9 48 -3.3 26.1
04:20 1017 30.03 846 24.98 7.3 45.1 47 -3.4 25.8
04:25 1017 30.03 846 24.98 7.4 45.3 46 -3.4 25.8
04:30 1017 30.03 846 24.98 7.4 45.3 46 -3.4 25.8
04:35 1017 30.03 846 24.98 7.4 45.2 46 -3.4 25.9
04:40 1017 30.03 846 24.98 7.3 45.2 45 -3.8 25.1
04:45 1017 30.03 846 24.98 7.5 45.5 45 -3.6 25.6
04:50 1017 30.03 846 24.98 7.4 45.3 46 -3.6 25.6
04:55 1017 30.03 846 24.98 7.3 45.2 47 -3.3 26
05:00 1017 30.03 846 24.98 7.1 44.7 47 -3.4 25.8
05:05 1017 30.03 846 24.98 6.9 44.4 48 -3.3 26.1
05:10 1017 30.03 846 24.98 6.8 44.3 48 -3.4 25.8
05:15 1017 30.03 846 24.98 7.1 44.7 46 -3.7 25.3
05:20 1017 30.03 846 24.98 7.4 45.2 44 -3.9 24.9
05:25 1017 30.03 846 24.98 7.4 45.3 45 -3.8 25.1
05:30 1017 30.03 846 24.98 7.4 45.3 45 -3.8 25.2
05:35 1017 30.03 846 24.98 7.3 45.1 46 -3.7 25.3
05:40 1017 30.03 846 24.98 7.2 44.9 46 -3.8 25.2
05:45 1017 30.03 846 24.98 7.2 44.9 45 -3.9 25
05:50 1017 30.03 847 25.01 7.3 45.1 45 -3.9 24.9
05:55 1017 30.03 847 25.01 7.3 45.1 45 -3.8 25.2
06:00 1017 30.03 847 25.01 7.2 44.9 45 -3.9 25
06:05 1017 30.03 846 24.98 7.2 45 43 -4.4 24.1
06:10 1017 30.03 846 24.98 7.4 45.4 42 -4.7 23.6
06:15 1017 30.03 846 24.98 7.6 45.7 42 -4.3 24.2
06:20 1017 30.03 847 25.01 7.5 45.5 42 -4.5 23.9
06:25 1017 30.03 847 25.01 7.6 45.7 42 -4.5 23.9
06:30 1018 30.06 847 25.01 7.6 45.7 42 -4.3 24.2
06:35 1018 30.06 847 25.01 7.5 45.4 43 -4.3 24.3
06:40 1018 30.06 847 25.01 7.3 45.1 44 -4 24.8
06:45 1018 30.06 847 25.01 7.2 44.9 45 -4 24.7
06:50 1018 30.06 847 25.01 7.1 44.9 45 -4.1 24.7
06:55 1018 30.06 847 25.01 7.1 44.7 46 -3.8 25.1
07:00 1018 30.06 847 25.01 7 44.6 45 -4 24.8
07:05 1018 30.06 847 25.01 7.3 45.2 45 -3.9 25
07:10 1018 30.06 847 25.01 7.5 45.4 45 -3.7 25.3
07:15 1018 30.06 847 25.01 7.3 45.2 45 -3.7 25.3
07:20 1018 30.06 847 25.01 7.2 45 46 -3.7 25.4
07:25 1018 30.06 847 25.01 7.1 44.8 47 -3.5 25.6
07:30 1018 30.06 847 25.01 6.9 44.5 47 -3.6 25.5
07:35 1018 30.06 847 25.01 6.9 44.4 47 -3.7 25.3
07:40 1018 30.06 847 25.01 7 44.5 47 -3.7 25.4
07:45 1018 30.06 848 25.04 6.9 44.5 47 -3.6 25.6
07:50 1018 30.06 848 25.04 6.8 44.3 47 -3.7 25.3
07:55 1018 30.06 848 25.04 6.7 44.1 47 -3.8 25.2
08:00 1018 30.06 848 25.04 6.6 43.8 47 -3.9 25.1
08:05 1018 30.06 848 25.04 6.5 43.7 47 -4 24.8
08:10 1018 30.06 848 25.04 6.6 43.9 46 -4.2 24.5
08:15 1019 30.09 848 25.04 6.8 44.3 44 -4.4 24
08:20 1019 30.09 848 25.04 7 44.6 44 -4.3 24.3
08:25 1019 30.09 848 25.04 7 44.6 44 -4.5 23.9
08:30 1019 30.09 848 25.04 6.9 44.4 45 -4.3 24.3
08:35 1019 30.09 848 25.04 6.8 44.2 44 -4.5 24
08:40 1019 30.09 848 25.04 6.7 44.1 44 -4.5 23.8
08:45 1019 30.09 848 25.04 6.7 44 45 -4.5 23.9
08:50 1019 30.09 848 25.04 6.6 43.9 44 -4.7 23.5
08:55 1019 30.09 848 25.04 6.7 44.1 44 -4.7 23.5
09:00 1019 30.09 848 25.04 6.7 44.1 44 -4.7 23.6
09:05 1019 30.09 848 25.04 6.7 44 43 -4.9 23.2
09:10 1019 30.09 848 25.04 6.9 44.4 43 -4.8 23.3
09:15 1019 30.09 849 25.07 7.1 44.7 43 -4.6 23.7
09:20 1019 30.09 848 25.04 7.1 44.7 42 -4.9 23.2
09:25 1019 30.09 849 25.07 7.3 45.2 42 -4.8 23.4
09:30 1019 30.09 849 25.07 7.7 45.8 40 -5.1 22.8
09:35 1019 30.09 849 25.07 8.1 46.6 38 -5.2 22.6
09:40 1019 30.09 849 25.07 8.3 47 38 -5 23
09:45 1020 30.12 849 25.07 8.6 47.4 38 -4.8 23.3
09:50 1020 30.12 849 25.07 8.8 47.8 39 -4.4 24.1
09:55 1020 30.12 849 25.07 9 48.1 39 -4.3 24.2
10:00 1020 30.12 849 25.07 9.5 49.2 37 -4.3 24.3
10:05 1020 30.12 849 25.07 9.9 49.8 36 -4.3 24.3
10:10 1020 30.12 849 25.07 10 49.9 37 -4.2 24.4
10:15 1020 30.12 849 25.07 9.8 49.6 37 -4.2 24.5
10:20 1020 30.12 849 25.07 9.5 49.1 37 -4.3 24.3
10:25 1020 30.12 849 25.07 9.6 49.2 37 -4.3 24.2
10:30 1019 30.09 849 25.07 9.5 49.1 38 -4.2 24.5
10:35 1020 30.12 849 25.07 9.7 49.5 36 -4.5 23.9
10:40 1020 30.12 849 25.07 9.9 49.7 36 -4.5 24
10:45 1019 30.09 849 25.07 9.8 49.7 35 -5 23
10:50 1019 30.09 849 25.07 9.7 49.5 34 -5.2 22.6
10:55 1020 30.12 849 25.07 10.1 50.1 33 -5.3 22.4
11:00 1020 30.12 849 25.07 10.2 50.3 32 -5.7 21.7
11:05 1020 30.12 849 25.07 10.3 50.5 33 -5.1 22.9
11:10 1020 30.12 849 25.07 10.8 51.4 32 -5.1 22.8
11:15 1020 30.12 849 25.07 11.4 52.4 32 -4.9 23.3
11:20 1020 30.12 849 25.07 11.6 52.8 31 -5 23
11:25 1020 30.12 849 25.07 11.9 53.4 31 -4.5 23.9
11:30 1020 30.12 849 25.07 11.5 52.8 31 -4.8 23.4
11:35 1020 30.12 849 25.07 11.6 52.9 31 -4.9 23.2
11:40 1020 30.12 849 25.07 11.5 52.7 30 -5.7 21.8
11:45 1020 30.12 849 25.07 11.7 53.1 30 -5.4 22.3
11:50 1020 30.12 849 25.07 11.9 53.4 30 -5.3 22.4
11:55 1020 30.12 849 25.07 11.7 53.1 25 -7.5 18.5
12:00 1020 30.12 849 25.07 11.3 52.4 28 -6.7 20
12:05 1020 30.12 849 25.07 11.6 52.9 28 -6.1 20.9
12:10 1020 30.12 849 25.07 11.7 53 24 -8.2 17.2
12:15 1020 30.12 849 25.07 11.7 53.1 24 -8.3 17.1
12:20 1020 30.12 850 25.1 12 53.7 22 -8.8 16.1
12:25 1020 30.12 850 25.1 12.2 53.9 21 -9.7 14.6
12:30 1020 30.12 850 25.1 12.2 54 21 -9.6 14.6
12:35 1020 30.12 850 25.1 12.2 53.9 22 -8.8 16.2
12:40 1020 30.12 850 25.1 11.8 53.3 22 -9.2 15.4
12:45 1020 30.12 850 25.1 12 53.5 24 -8 17.6
12:50 1020 30.12 850 25.1 11.9 53.5 22 -9.1 15.6
12:55 1020 30.12 850 25.1 11.9 53.4 23 -8.4 17
13:00 1020 30.12 850 25.1 12 53.6 22 -9.2 15.4
13:05 1020 30.12 850 25.1 12.1 53.7 22 -8.9 16.1
13:10 1020 30.12 849 25.07 12.2 53.9 23 -8.5 16.7
13:15 1020 30.12 849 25.07 12.2 54 22 -8.9 15.9
13:20 1020 30.12 849 25.07 12.1 53.7 21 -9.5 14.9
13:25 1020 30.12 849 25.07 12.1 53.8 22 -8.8 16.1
13:30 1020 30.12 849 25.07 12.6 54.7 23 -7.8 17.9
13:35 1020 30.12 849 25.07 12.7 54.9 22 -8.3 17.1
13:40 1020 30.12 849 25.07 12.3 54.1 23 -8.5 16.8
13:45 1020 30.12 849 25.07 12.7 54.9 22 -8.5 16.7
13:50 1020 30.12 849 25.07 12.8 55 21 -8.7 16.3
13:55 1020 30.12 849 25.07 13 55.3 21 -8.5 16.6
14:00 1020 30.12 849 25.07 12.5 54.5 22 -8.8 16.2
14:05 1020 30.12 849 25.07 12.7 54.9 21 -9 15.8
14:10 1020 30.12 849 25.07 12.9 55.2 21 -8.8 16.2
14:15 1020 30.12 849 25.07 13.3 55.9 20 -8.9 16
14:20 1020 30.12 849 25.07 13.4 56.2 20 -8.8 16.2
14:25 1020 30.12 849 25.07 13.5 56.2 21 -8.3 17
14:30 1020 30.12 849 25.07 13.1 55.5 20 -9.1 15.6
14:35 1020 30.12 849 25.07 13.1 55.6 21 -8.8 16.2
14:40 1020 30.12 849 25.07 13.3 55.9 20 -9.4 15.1
14:45 1020 30.12 849 25.07 13.7 56.6 20 -8.6 16.6
14:50 1020 30.12 849 25.07 13.6 56.4 20 -8.7 16.3
14:55 1019 30.09 849 25.07 13.5 56.4 19 -9.4 15.2
15:00 1019 30.09 849 25.07 13.4 56.1 20 -8.8 16.1
15:05 1019 30.09 848 25.04 13.6 56.4 20 -9.1 15.6
15:10 1019 30.09 848 25.04 13.7 56.7 20 -8.5 16.6
15:15 1019 30.09 848 25.04 13.6 56.5 21 -8.3 17.1
15:20 1019 30.09 848 25.04 13.7 56.7 21 -8.2 17.3
15:25 1019 30.09 848 25.04 14 57.2 19 -9.1 15.7
15:30 1019 30.09 848 25.04 13.6 56.5 20 -9.2 15.5
15:35 1019 30.09 848 25.04 13.6 56.6 20 -8.9 16
15:40 1019 30.09 848 25.04 13.5 56.2 22 -8 17.5
15:45 1019 30.09 848 25.04 13.3 55.9 21 -8.4 16.9
15:50 1019 30.09 848 25.04 13.7 56.7 20 -8.7 16.3
15:55 1019 30.09 848 25.04 14.1 57.5 20 -8.6 16.5
16:00 1019 30.09 848 25.04 13.6 56.5 21 -8.1 17.4
16:05 1019 30.09 848 25.04 13 55.4 21 -8.6 16.5
16:10 1019 30.09 848 25.04 12.7 54.9 23 -8 17.6
16:15 1019 30.09 848 25.04 13 55.3 20 -9.4 15
16:20 1019 30.09 848 25.04 13.6 56.6 19 -9.2 15.4
16:25 1019 30.09 848 25.04 13.7 56.6 21 -8.5 16.7
16:30 1019 30.09 848 25.04 13.4 56.2 22 -8.1 17.4
16:35 1019 30.09 848 25.04 13.1 55.5 22 -8.1 17.4
16:40 1019 30.09 848 25.04 13.3 55.9 22 -7.7 18.1
16:45 1019 30.09 848 25.04 13.7 56.6 21 -8 17.6
16:50 1019 30.09 848 25.04 13.7 56.7 21 -8.4 16.9
16:55 1019 30.09 848 25.04 14 57.1 20 -8.7 16.3
17:00 1019 30.09 848 25.04 13.6 56.4 22 -7.9 17.8
17:05 1019 30.09 848 25.04 13.1 55.6 22 -8 17.5
17:10 1019 30.09 848 25.04 12.9 55.3 23 -7.8 17.9
17:15 1019 30.09 848 25.04 12.7 54.8 23 -7.8 18
17:20 1019 30.09 848 25.04 12.4 54.3 23 -8.1 17.5
17:25 1019 30.09 848 25.04 12.2 53.9 24 -7.9 17.7
17:30 1019 30.09 848 25.04 12 53.6 24 -8 17.5
17:35 1019 30.09 848 25.04 11.9 53.4 24 -8.2 17.3
17:40 1019 30.09 848 25.04 12.1 53.8 24 -8.1 17.5
17:45 1019 30.09 848 25.04 12.1 53.7 24 -8 17.6
17:50 1019 30.09 848 25.04 11.8 53.3 24 -7.9 17.8
17:55 1019 30.09 848 25.04 11.7 53 25 -7.8 18
18:00 1019 30.09 848 25.04 11.5 52.7 25 -7.7 18.2
18:05 1019 30.09 848 25.04 11.3 52.3 26 -7.7 18.2
18:10 1019 30.09 848 25.04 11.2 52.1 26 -7.8 17.9
18:15 1019 30.09 848 25.04 11.2 52.1 25 -8 17.6
18:20 1019 30.09 848 25.04 11.2 52.1 25 -8 17.7
18:25 1019 30.09 848 25.04 11.1 51.9 25 -8.1 17.4
18:30 1019 30.09 849 25.07 10.8 51.5 26 -7.9 17.8
18:35 1019 30.09 849 25.07 10.6 51.1 27 -7.4 18.7
18:40 1019 30.09 849 25.07 10.1 50.2 28 -7.4 18.6
18:45 1019 30.09 849 25.07 9.9 49.8 31 -6.5 20.3
18:50 1019 30.09 849 25.07 9.3 48.7 32 -6.7 19.9
18:55 1019 30.09 849 25.07 8.9 48.1 31 -7.5 18.5
19:00 1019 30.09 849 25.07 9.1 48.4 31 -7.1 19.3
19:05 1019 30.09 849 25.07 8.8 47.9 32 -6.8 19.7
19:10 1020 30.12 849 25.07 8.2 46.8 33 -7.1 19.2
19:15 1020 30.12 849 25.07 8 46.4 33 -7.5 18.5
19:20 1020 30.12 849 25.07 8.3 47 29 -8.8 16.2
19:25 1020 30.12 849 25.07 9 48.1 28 -8.6 16.6
19:30 1020 30.12 849 25.07 9.2 48.5 31 -7.1 19.1
19:35 1020 30.12 849 25.07 8.3 46.9 32 -7.5 18.6
19:40 1020 30.12 849 25.07 7.6 45.7 36 -6.5 20.4
19:45 1020 30.12 849 25.07 6.7 44.1 35 -7.8 17.9
19:50 1020 30.12 849 25.07 7.1 44.7 36 -7.1 19.1
19:55 1020 30.12 849 25.07 6.8 44.2 37 -6.9 19.5
20:00 1020 30.12 849 25.07 6.5 43.7 36 -7.4 18.7
20:05 1020 30.12 849 25.07 6.5 43.7 37 -7.3 18.9
20:10 1020 30.12 849 25.07 6.3 43.4 37 -7.2 19.1
20:15 1020 30.12 849 25.07 6.5 43.8 37 -7 19.5
20:20 1020 30.12 849 25.07 6.3 43.4 38 -6.9 19.5
20:25 1020 30.12 849 25.07 6.3 43.4 38 -6.9 19.6
20:30 1019 30.09 849 25.07 6.2 43.1 39 -6.8 19.8
20:35 1019 30.09 849 25.07 5.9 42.6 40 -6.8 19.8
20:40 1019 30.09 849 25.07 5.9 42.5 39 -7 19.4
20:45 1019 30.09 849 25.07 5.8 42.5 40 -6.9 19.6
20:50 1019 30.09 849 25.07 5.7 42.3 40 -6.9 19.5
20:55 1019 30.09 848 25.04 5.5 42 40 -7.2 19.1
21:00 1019 30.09 848 25.04 5.2 41.4 42 -6.6 20.2
21:05 1019 30.09 848 25.04 5.2 41.4 42 -6.5 20.3
21:10 1019 30.09 848 25.04 5.5 41.9 42 -6.5 20.2
21:15 1019 30.09 848 25.04 5.7 42.3 42 -6.3 20.7
21:20 1019 30.09 848 25.04 6 42.7 41 -6.2 20.9
21:25 1019 30.09 848 25.04 6 42.8 41 -6.1 21
21:30 1019 30.09 848 25.04 6 42.8 42 -6.1 21.1
21:35 1019 30.09 848 25.04 6 42.8 42 -6.1 21.1
21:40 1019 30.09 848 25.04 6 42.8 42 -6 21.3
21:45 1019 30.09 848 25.04 6.1 42.9 41 -6.1 21.1
21:50 1019 30.09 848 25.04 6 42.8 42 -5.9 21.4
21:55 1019 30.09 848 25.04 5.9 42.6 42 -6 21.2
22:00 1019 30.09 848 25.04 6 42.9 41 -6.2 20.8
22:05 1019 30.09 848 25.04 6.2 43.1 41 -6.1 21
22:10 1019 30.09 848 25.04 6.2 43.1 41 -6.2 20.9
22:15 1019 30.09 848 25.04 6.3 43.3 40 -6.2 20.8
22:20 1019 30.09 848 25.04 6.2 43.2 42 -5.8 21.5
22:25 1019 30.09 848 25.04 5.9 42.6 43 -5.8 21.5
22:30 1019 30.09 848 25.04 5.8 42.4 43 -5.9 21.4
22:35 1019 30.09 848 25.04 5.8 42.4 43 -5.8 21.5
22:40 1019 30.09 848 25.04 5.9 42.6 43 -5.8 21.5
22:45 1019 30.09 848 25.04 5.9 42.6 42 -5.9 21.3
22:50 1019 30.09 848 25.04 5.9 42.6 42 -6.1 21
22:55 1019 30.09 848 25.04 6 42.7 42 -5.9 21.5
23:00 1019 30.09 848 25.04 5.9 42.7 42 -6.1 21
23:05 1019 30.09 848 25.04 5.9 42.6 43 -5.9 21.4
23:10 1019 30.09 848 25.04 5.7 42.3 44 -5.7 21.7
23:15 1019 30.09 848 25.04 5.6 42.1 45 -5.5 22.1
23:20 1019 30.09 848 25.04 5.4 41.8 45 -5.7 21.8
23:25 1019 30.09 848 25.04 5.6 42 44 -5.7 21.7
23:30 1019 30.09 848 25.04 5.6 42.1 43 -5.8 21.5
23:35 1019 30.09 848 25.04 5.7 42.2 44 -5.7 21.7
23:40 1019 30.09 848 25.04 5.7 42.3 44 -5.7 21.8
23:45 1019 30.09 848 25.04 5.7 42.2 44 -5.6 22
23:50 1019 30.09 848 25.04 5.6 42 45 -5.5 22.2
23:55 1019 30.09 848 25.04 5.5 41.9 45 -5.5 22.1
24:00 1019 30.09 848 25.04 5.7 42.2 45 -5.4 22.2